sensor_id;sensor_type;location;lat;lon;timestamp;P1;durP1;ratioP1;P2;durP2;ratioP2
17390;SDS011;8813;54.444;18.446;2023-03-01T00:00:07;1.90;;;1.90;;
17390;SDS011;8813;54.444;18.446;2023-03-01T00:02:35;1.50;;;1.50;;
17390;SDS011;8813;54.444;18.446;2023-03-01T00:05:04;1.83;;;1.83;;
17390;SDS011;8813;54.444;18.446;2023-03-01T00:07:32;1.43;;;1.43;;
17390;SDS011;8813;54.444;18.446;2023-03-01T00:09:59;1.40;;;1.40;;
17390;SDS011;8813;54.444;18.446;2023-03-01T00:12:26;1.33;;;1.33;;
17390;SDS011;8813;54.444;18.446;2023-03-01T00:14:53;2.27;;;2.20;;
17390;SDS011;8813;54.444;18.446;2023-03-01T00:17:20;1.90;;;1.90;;
17390;SDS011;8813;54.444;18.446;2023-03-01T00:19:47;1.90;;;1.90;;
17390;SDS011;8813;54.444;18.446;2023-03-01T00:22:15;1.87;;;1.87;;
17390;SDS011;8813;54.444;18.446;2023-03-01T00:24:42;1.70;;;1.70;;
17390;SDS011;8813;54.444;18.446;2023-03-01T00:27:09;2.10;;;1.70;;
17390;SDS011;8813;54.444;18.446;2023-03-01T00:29:36;4.70;;;2.00;;
17390;SDS011;8813;54.444;18.446;2023-03-01T00:32:03;3.10;;;3.00;;
17390;SDS011;8813;54.444;18.446;2023-03-01T00:34:30;1.40;;;1.40;;
17390;SDS011;8813;54.444;18.446;2023-03-01T00:36:57;1.53;;;1.53;;
17390;SDS011;8813;54.444;18.446;2023-03-01T00:39:31;2.03;;;1.93;;
17390;SDS011;8813;54.444;18.446;2023-03-01T00:41:58;1.40;;;1.40;;
17390;SDS011;8813;54.444;18.446;2023-03-01T00:44:25;1.33;;;1.33;;
17390;SDS011;8813;54.444;18.446;2023-03-01T00:46:53;1.30;;;1.30;;
17390;SDS011;8813;54.444;18.446;2023-03-01T00:49:20;1.40;;;1.40;;
17390;SDS011;8813;54.444;18.446;2023-03-01T00:51:49;1.30;;;1.30;;
17390;SDS011;8813;54.444;18.446;2023-03-01T00:54:16;1.53;;;1.50;;
17390;SDS011;8813;54.444;18.446;2023-03-01T00:56:44;1.20;;;1.20;;
17390;SDS011;8813;54.444;18.446;2023-03-01T00:59:11;1.30;;;1.30;;
17390;SDS011;8813;54.444;18.446;2023-03-01T01:01:38;1.20;;;1.20;;
17390;SDS011;8813;54.444;18.446;2023-03-01T01:04:06;2.37;;;2.27;;
17390;SDS011;8813;54.444;18.446;2023-03-01T01:06:36;1.40;;;1.40;;
17390;SDS011;8813;54.444;18.446;2023-03-01T01:09:04;1.30;;;1.30;;
17390;SDS011;8813;54.444;18.446;2023-03-01T01:11:32;1.43;;;1.43;;
17390;SDS011;8813;54.444;18.446;2023-03-01T01:14:01;1.87;;;1.87;;
17390;SDS011;8813;54.444;18.446;2023-03-01T01:16:29;2.47;;;2.30;;
17390;SDS011;8813;54.444;18.446;2023-03-01T01:18:56;2.60;;;2.40;;
17390;SDS011;8813;54.444;18.446;2023-03-01T01:21:24;1.30;;;1.30;;
17390;SDS011;8813;54.444;18.446;2023-03-01T01:23:52;1.30;;;1.30;;
17390;SDS011;8813;54.444;18.446;2023-03-01T01:26:20;2.27;;;2.17;;
17390;SDS011;8813;54.444;18.446;2023-03-01T01:28:48;1.83;;;1.77;;
17390;SDS011;8813;54.444;18.446;2023-03-01T01:31:17;1.40;;;1.40;;
17390;SDS011;8813;54.444;18.446;2023-03-01T01:33:45;1.70;;;1.70;;
17390;SDS011;8813;54.444;18.446;2023-03-01T01:36:12;2.63;;;2.53;;
17390;SDS011;8813;54.444;18.446;2023-03-01T01:38:39;1.60;;;1.60;;
17390;SDS011;8813;54.444;18.446;2023-03-01T01:41:07;2.63;;;2.53;;
17390;SDS011;8813;54.444;18.446;2023-03-01T01:43:37;1.80;;;1.73;;
17390;SDS011;8813;54.444;18.446;2023-03-01T01:46:06;1.73;;;1.73;;
17390;SDS011;8813;54.444;18.446;2023-03-01T01:48:43;1.50;;;1.50;;
17390;SDS011;8813;54.444;18.446;2023-03-01T01:51:12;1.30;;;1.30;;
17390;SDS011;8813;54.444;18.446;2023-03-01T01:53:40;1.70;;;1.70;;
17390;SDS011;8813;54.444;18.446;2023-03-01T01:56:08;2.10;;;2.00;;
17390;SDS011;8813;54.444;18.446;2023-03-01T01:58:38;2.30;;;2.20;;
17390;SDS011;8813;54.444;18.446;2023-03-01T02:01:07;1.97;;;1.97;;
17390;SDS011;8813;54.444;18.446;2023-03-01T02:03:34;1.50;;;1.50;;
17390;SDS011;8813;54.444;18.446;2023-03-01T02:06:05;1.90;;;1.90;;
17390;SDS011;8813;54.444;18.446;2023-03-01T02:08:35;1.80;;;1.70;;
17390;SDS011;8813;54.444;18.446;2023-03-01T02:11:04;6.73;;;6.43;;
17390;SDS011;8813;54.444;18.446;2023-03-01T02:13:31;2.60;;;2.50;;
17390;SDS011;8813;54.444;18.446;2023-03-01T02:15:59;2.00;;;2.00;;
17390;SDS011;8813;54.444;18.446;2023-03-01T02:18:29;5.10;;;4.80;;
17390;SDS011;8813;54.444;18.446;2023-03-01T02:20:59;3.93;;;3.67;;
17390;SDS011;8813;54.444;18.446;2023-03-01T02:23:35;2.80;;;2.70;;
17390;SDS011;8813;54.444;18.446;2023-03-01T02:26:04;1.80;;;1.80;;
17390;SDS011;8813;54.444;18.446;2023-03-01T02:28:34;3.90;;;2.47;;
17390;SDS011;8813;54.444;18.446;2023-03-01T02:31:02;2.57;;;2.37;;
17390;SDS011;8813;54.444;18.446;2023-03-01T02:33:47;3.70;;;3.33;;
17390;SDS011;8813;54.444;18.446;2023-03-01T02:36:15;3.60;;;3.37;;
17390;SDS011;8813;54.444;18.446;2023-03-01T02:38:44;3.00;;;2.90;;
17390;SDS011;8813;54.444;18.446;2023-03-01T02:41:11;4.07;;;3.67;;
17390;SDS011;8813;54.444;18.446;2023-03-01T02:43:42;2.47;;;2.37;;
17390;SDS011;8813;54.444;18.446;2023-03-01T02:46:13;4.13;;;3.83;;
17390;SDS011;8813;54.444;18.446;2023-03-01T02:48:42;5.23;;;3.73;;
17390;SDS011;8813;54.444;18.446;2023-03-01T02:51:11;8.43;;;4.33;;
17390;SDS011;8813;54.444;18.446;2023-03-01T02:53:46;2.80;;;2.70;;
17390;SDS011;8813;54.444;18.446;2023-03-01T02:56:20;3.53;;;3.33;;
17390;SDS011;8813;54.444;18.446;2023-03-01T02:58:48;4.27;;;3.27;;
17390;SDS011;8813;54.444;18.446;2023-03-01T03:01:16;2.43;;;2.40;;
17390;SDS011;8813;54.444;18.446;2023-03-01T03:03:43;4.97;;;4.53;;
17390;SDS011;8813;54.444;18.446;2023-03-01T03:06:10;4.40;;;4.10;;
17390;SDS011;8813;54.444;18.446;2023-03-01T03:08:38;3.77;;;3.43;;
17390;SDS011;8813;54.444;18.446;2023-03-01T03:11:04;2.87;;;2.80;;
17390;SDS011;8813;54.444;18.446;2023-03-01T03:13:32;2.93;;;2.83;;
17390;SDS011;8813;54.444;18.446;2023-03-01T03:16:00;17.47;;;4.60;;
17390;SDS011;8813;54.444;18.446;2023-03-01T03:18:28;3.13;;;2.93;;
17390;SDS011;8813;54.444;18.446;2023-03-01T03:20:55;3.90;;;3.60;;
17390;SDS011;8813;54.444;18.446;2023-03-01T03:23:22;4.30;;;4.00;;
17390;SDS011;8813;54.444;18.446;2023-03-01T03:25:49;3.83;;;3.73;;
17390;SDS011;8813;54.444;18.446;2023-03-01T03:28:16;3.17;;;2.97;;
17390;SDS011;8813;54.444;18.446;2023-03-01T03:30:44;2.77;;;2.73;;
17390;SDS011;8813;54.444;18.446;2023-03-01T03:33:13;2.60;;;2.60;;
17390;SDS011;8813;54.444;18.446;2023-03-01T03:35:41;2.20;;;2.20;;
17390;SDS011;8813;54.444;18.446;2023-03-01T03:38:09;4.57;;;4.20;;
17390;SDS011;8813;54.444;18.446;2023-03-01T03:40:42;7.27;;;5.07;;
17390;SDS011;8813;54.444;18.446;2023-03-01T03:43:11;2.43;;;2.43;;
17390;SDS011;8813;54.444;18.446;2023-03-01T03:45:39;5.60;;;4.93;;
17390;SDS011;8813;54.444;18.446;2023-03-01T03:48:07;2.90;;;2.80;;
17390;SDS011;8813;54.444;18.446;2023-03-01T03:50:37;3.80;;;3.70;;
17390;SDS011;8813;54.444;18.446;2023-03-01T03:53:05;2.93;;;2.93;;
17390;SDS011;8813;54.444;18.446;2023-03-01T03:55:33;9.97;;;5.37;;
17390;SDS011;8813;54.444;18.446;2023-03-01T03:58:01;5.47;;;3.23;;
17390;SDS011;8813;54.444;18.446;2023-03-01T04:00:32;4.17;;;3.77;;
17390;SDS011;8813;54.444;18.446;2023-03-01T04:02:59;4.53;;;3.47;;
17390;SDS011;8813;54.444;18.446;2023-03-01T04:05:26;5.93;;;5.30;;
17390;SDS011;8813;54.444;18.446;2023-03-01T04:07:55;4.30;;;4.00;;
17390;SDS011;8813;54.444;18.446;2023-03-01T04:10:33;3.07;;;3.00;;
17390;SDS011;8813;54.444;18.446;2023-03-01T04:13:01;3.10;;;3.00;;
17390;SDS011;8813;54.444;18.446;2023-03-01T04:15:28;5.73;;;4.63;;
17390;SDS011;8813;54.444;18.446;2023-03-01T04:17:55;8.27;;;5.47;;
17390;SDS011;8813;54.444;18.446;2023-03-01T04:20:24;5.13;;;3.03;;
17390;SDS011;8813;54.444;18.446;2023-03-01T04:22:58;3.87;;;3.77;;
17390;SDS011;8813;54.444;18.446;2023-03-01T04:25:35;2.77;;;2.70;;
17390;SDS011;8813;54.444;18.446;2023-03-01T04:28:04;5.40;;;4.93;;
17390;SDS011;8813;54.444;18.446;2023-03-01T04:30:31;3.10;;;3.00;;
17390;SDS011;8813;54.444;18.446;2023-03-01T04:33:01;2.50;;;2.50;;
17390;SDS011;8813;54.444;18.446;2023-03-01T04:35:29;3.67;;;3.57;;
17390;SDS011;8813;54.444;18.446;2023-03-01T04:37:58;3.07;;;2.97;;
17390;SDS011;8813;54.444;18.446;2023-03-01T04:40:25;3.17;;;3.03;;
17390;SDS011;8813;54.444;18.446;2023-03-01T04:42:53;2.70;;;2.70;;
17390;SDS011;8813;54.444;18.446;2023-03-01T04:45:20;5.50;;;4.50;;
17390;SDS011;8813;54.444;18.446;2023-03-01T04:47:47;4.60;;;4.20;;
17390;SDS011;8813;54.444;18.446;2023-03-01T04:50:14;3.83;;;3.67;;
17390;SDS011;8813;54.444;18.446;2023-03-01T04:52:42;4.73;;;4.33;;
17390;SDS011;8813;54.444;18.446;2023-03-01T04:55:10;4.10;;;3.77;;
17390;SDS011;8813;54.444;18.446;2023-03-01T04:57:37;3.20;;;2.90;;
17390;SDS011;8813;54.444;18.446;2023-03-01T05:00:06;5.00;;;4.07;;
17390;SDS011;8813;54.444;18.446;2023-03-01T05:02:45;5.10;;;2.60;;
17390;SDS011;8813;54.444;18.446;2023-03-01T05:05:21;5.87;;;5.33;;
17390;SDS011;8813;54.444;18.446;2023-03-01T05:07:51;3.43;;;3.33;;
17390;SDS011;8813;54.444;18.446;2023-03-01T05:10:22;4.33;;;3.93;;
17390;SDS011;8813;54.444;18.446;2023-03-01T05:12:50;15.67;;;7.97;;
17390;SDS011;8813;54.444;18.446;2023-03-01T05:15:18;5.50;;;5.00;;
17390;SDS011;8813;54.444;18.446;2023-03-01T05:17:46;4.57;;;4.17;;
17390;SDS011;8813;54.444;18.446;2023-03-01T05:20:14;7.10;;;4.33;;
17390;SDS011;8813;54.444;18.446;2023-03-01T05:22:41;15.33;;;5.40;;
17390;SDS011;8813;54.444;18.446;2023-03-01T05:25:08;4.93;;;4.43;;
17390;SDS011;8813;54.444;18.446;2023-03-01T05:27:36;4.90;;;4.60;;
17390;SDS011;8813;54.444;18.446;2023-03-01T05:30:03;6.07;;;5.43;;
17390;SDS011;8813;54.444;18.446;2023-03-01T05:32:39;2.50;;;2.43;;
17390;SDS011;8813;54.444;18.446;2023-03-01T05:35:08;4.43;;;4.17;;
17390;SDS011;8813;54.444;18.446;2023-03-01T05:37:38;3.87;;;3.60;;
17390;SDS011;8813;54.444;18.446;2023-03-01T05:40:07;3.63;;;3.53;;
17390;SDS011;8813;54.444;18.446;2023-03-01T05:42:42;5.30;;;3.10;;
17390;SDS011;8813;54.444;18.446;2023-03-01T05:45:10;5.67;;;5.10;;
17390;SDS011;8813;54.444;18.446;2023-03-01T05:47:37;8.53;;;6.43;;
17390;SDS011;8813;54.444;18.446;2023-03-01T05:50:09;4.00;;;3.80;;
17390;SDS011;8813;54.444;18.446;2023-03-01T05:52:37;4.47;;;4.17;;
17390;SDS011;8813;54.444;18.446;2023-03-01T05:55:04;4.23;;;4.13;;
17390;SDS011;8813;54.444;18.446;2023-03-01T05:57:32;5.70;;;4.53;;
17390;SDS011;8813;54.444;18.446;2023-03-01T06:00:00;5.33;;;4.90;;
17390;SDS011;8813;54.444;18.446;2023-03-01T06:02:28;4.53;;;4.33;;
17390;SDS011;8813;54.444;18.446;2023-03-01T06:04:55;5.23;;;5.03;;
17390;SDS011;8813;54.444;18.446;2023-03-01T06:07:22;5.20;;;4.83;;
17390;SDS011;8813;54.444;18.446;2023-03-01T06:09:49;4.13;;;3.83;;
17390;SDS011;8813;54.444;18.446;2023-03-01T06:12:16;4.17;;;3.83;;
17390;SDS011;8813;54.444;18.446;2023-03-01T06:14:44;4.80;;;4.60;;
17390;SDS011;8813;54.444;18.446;2023-03-01T06:17:14;4.63;;;4.33;;
17390;SDS011;8813;54.444;18.446;2023-03-01T06:19:41;4.70;;;4.50;;
17390;SDS011;8813;54.444;18.446;2023-03-01T06:22:08;6.33;;;5.73;;
17390;SDS011;8813;54.444;18.446;2023-03-01T06:24:34;4.47;;;4.37;;
17390;SDS011;8813;54.444;18.446;2023-03-01T06:27:01;4.13;;;3.93;;
17390;SDS011;8813;54.444;18.446;2023-03-01T06:29:28;5.03;;;4.83;;
17390;SDS011;8813;54.444;18.446;2023-03-01T06:31:55;4.73;;;4.53;;
17390;SDS011;8813;54.444;18.446;2023-03-01T06:34:24;5.07;;;4.73;;
17390;SDS011;8813;54.444;18.446;2023-03-01T06:36:51;5.80;;;5.50;;
17390;SDS011;8813;54.444;18.446;2023-03-01T06:39:18;4.53;;;4.33;;
17390;SDS011;8813;54.444;18.446;2023-03-01T06:41:45;4.50;;;4.23;;
17390;SDS011;8813;54.444;18.446;2023-03-01T06:44:11;5.57;;;5.27;;
17390;SDS011;8813;54.444;18.446;2023-03-01T06:46:38;5.67;;;5.23;;
17390;SDS011;8813;54.444;18.446;2023-03-01T06:49:05;5.50;;;5.20;;
17390;SDS011;8813;54.444;18.446;2023-03-01T06:51:35;3.90;;;3.80;;
17390;SDS011;8813;54.444;18.446;2023-03-01T06:54:03;3.77;;;3.67;;
17390;SDS011;8813;54.444;18.446;2023-03-01T06:56:30;3.20;;;3.20;;
17390;SDS011;8813;54.444;18.446;2023-03-01T06:58:57;3.73;;;3.63;;
17390;SDS011;8813;54.444;18.446;2023-03-01T07:01:24;3.87;;;3.33;;
17390;SDS011;8813;54.444;18.446;2023-03-01T07:03:51;4.13;;;3.93;;
17390;SDS011;8813;54.444;18.446;2023-03-01T07:06:18;3.13;;;3.03;;
17390;SDS011;8813;54.444;18.446;2023-03-01T07:08:46;5.67;;;5.17;;
17390;SDS011;8813;54.444;18.446;2023-03-01T07:11:13;4.13;;;4.03;;
17390;SDS011;8813;54.444;18.446;2023-03-01T07:13:40;4.50;;;4.20;;
17390;SDS011;8813;54.444;18.446;2023-03-01T07:16:07;3.90;;;3.70;;
17390;SDS011;8813;54.444;18.446;2023-03-01T07:18:34;3.50;;;3.40;;
17390;SDS011;8813;54.444;18.446;2023-03-01T07:21:04;5.53;;;3.63;;
17390;SDS011;8813;54.444;18.446;2023-03-01T07:23:31;2.97;;;2.97;;
17390;SDS011;8813;54.444;18.446;2023-03-01T07:26:00;4.67;;;4.40;;
17390;SDS011;8813;54.444;18.446;2023-03-01T07:28:27;2.73;;;2.70;;
17390;SDS011;8813;54.444;18.446;2023-03-01T07:30:54;4.33;;;4.03;;
17390;SDS011;8813;54.444;18.446;2023-03-01T07:33:21;2.47;;;2.43;;
17390;SDS011;8813;54.444;18.446;2023-03-01T07:35:48;3.30;;;3.00;;
17390;SDS011;8813;54.444;18.446;2023-03-01T07:38:15;2.60;;;2.50;;
17390;SDS011;8813;54.444;18.446;2023-03-01T07:40:42;2.63;;;2.57;;
17390;SDS011;8813;54.444;18.446;2023-03-01T07:43:10;3.90;;;3.70;;
17390;SDS011;8813;54.444;18.446;2023-03-01T07:45:37;2.90;;;2.70;;
17390;SDS011;8813;54.444;18.446;2023-03-01T07:48:04;2.97;;;2.77;;
17390;SDS011;8813;54.444;18.446;2023-03-01T07:50:31;4.20;;;4.00;;
17390;SDS011;8813;54.444;18.446;2023-03-01T07:52:58;3.00;;;2.90;;
17390;SDS011;8813;54.444;18.446;2023-03-01T07:55:24;2.37;;;2.30;;
17390;SDS011;8813;54.444;18.446;2023-03-01T07:57:51;2.60;;;2.50;;
17390;SDS011;8813;54.444;18.446;2023-03-01T08:00:20;6.70;;;4.57;;
17390;SDS011;8813;54.444;18.446;2023-03-01T08:02:47;1.77;;;1.77;;
17390;SDS011;8813;54.444;18.446;2023-03-01T08:05:14;1.80;;;1.80;;
17390;SDS011;8813;54.444;18.446;2023-03-01T08:07:41;7.40;;;3.83;;
17390;SDS011;8813;54.444;18.446;2023-03-01T08:10:08;6.23;;;3.83;;
17390;SDS011;8813;54.444;18.446;2023-03-01T08:12:36;4.83;;;3.40;;
17390;SDS011;8813;54.444;18.446;2023-03-01T08:15:03;3.00;;;2.90;;
17390;SDS011;8813;54.444;18.446;2023-03-01T08:17:32;5.47;;;4.73;;
17390;SDS011;8813;54.444;18.446;2023-03-01T08:19:59;3.97;;;3.77;;
17390;SDS011;8813;54.444;18.446;2023-03-01T08:22:25;4.63;;;4.20;;
17390;SDS011;8813;54.444;18.446;2023-03-01T08:24:52;10.47;;;5.83;;
17390;SDS011;8813;54.444;18.446;2023-03-01T08:27:20;3.27;;;3.13;;
17390;SDS011;8813;54.444;18.446;2023-03-01T08:29:47;1.83;;;1.83;;
17390;SDS011;8813;54.444;18.446;2023-03-01T08:32:14;1.97;;;1.97;;
17390;SDS011;8813;54.444;18.446;2023-03-01T08:34:42;1.93;;;1.93;;
17390;SDS011;8813;54.444;18.446;2023-03-01T08:37:12;3.87;;;3.30;;
17390;SDS011;8813;54.444;18.446;2023-03-01T08:39:39;2.73;;;2.63;;
17390;SDS011;8813;54.444;18.446;2023-03-01T08:42:06;4.70;;;4.37;;
17390;SDS011;8813;54.444;18.446;2023-03-01T08:44:33;2.33;;;2.30;;
17390;SDS011;8813;54.444;18.446;2023-03-01T08:47:00;4.13;;;3.90;;
17390;SDS011;8813;54.444;18.446;2023-03-01T08:49:27;5.80;;;3.80;;
17390;SDS011;8813;54.444;18.446;2023-03-01T08:51:55;4.20;;;3.93;;
17390;SDS011;8813;54.444;18.446;2023-03-01T08:54:22;3.60;;;3.40;;
17390;SDS011;8813;54.444;18.446;2023-03-01T08:56:49;4.67;;;4.30;;
17390;SDS011;8813;54.444;18.446;2023-03-01T08:59:16;5.97;;;5.67;;
17390;SDS011;8813;54.444;18.446;2023-03-01T09:01:44;3.13;;;3.03;;
17390;SDS011;8813;54.444;18.446;2023-03-01T09:04:11;5.20;;;4.83;;
17390;SDS011;8813;54.444;18.446;2023-03-01T09:06:38;4.43;;;3.42;;
17390;SDS011;8813;54.444;18.446;2023-03-01T09:09:07;3.55;;;3.25;;
17390;SDS011;8813;54.444;18.446;2023-03-01T09:11:40;6.60;;;4.50;;
17390;SDS011;8813;54.444;18.446;2023-03-01T09:14:07;4.60;;;4.00;;
17390;SDS011;8813;54.444;18.446;2023-03-01T09:16:33;2.22;;;2.13;;
17390;SDS011;8813;54.444;18.446;2023-03-01T09:19:01;5.00;;;4.50;;
17390;SDS011;8813;54.444;18.446;2023-03-01T09:21:28;4.85;;;4.43;;
17390;SDS011;8813;54.444;18.446;2023-03-01T09:23:56;2.40;;;2.35;;
17390;SDS011;8813;54.444;18.446;2023-03-01T09:26:25;3.22;;;3.13;;
17390;SDS011;8813;54.444;18.446;2023-03-01T09:28:53;3.47;;;3.38;;
17390;SDS011;8813;54.444;18.446;2023-03-01T09:31:21;6.38;;;2.45;;
17390;SDS011;8813;54.444;18.446;2023-03-01T09:33:50;2.13;;;2.03;;
17390;SDS011;8813;54.444;18.446;2023-03-01T09:36:18;4.85;;;4.22;;
17390;SDS011;8813;54.444;18.446;2023-03-01T09:38:46;3.33;;;3.10;;
17390;SDS011;8813;54.444;18.446;2023-03-01T09:41:18;8.02;;;2.67;;
17390;SDS011;8813;54.444;18.446;2023-03-01T09:43:57;2.13;;;2.03;;
17390;SDS011;8813;54.444;18.446;2023-03-01T09:46:28;7.45;;;6.28;;
17390;SDS011;8813;54.444;18.446;2023-03-01T09:48:59;4.73;;;4.33;;
17390;SDS011;8813;54.444;18.446;2023-03-01T09:51:30;2.97;;;2.78;;
17390;SDS011;8813;54.444;18.446;2023-03-01T09:53:58;2.35;;;2.28;;
17390;SDS011;8813;54.444;18.446;2023-03-01T09:56:28;5.38;;;4.97;;
17390;SDS011;8813;54.444;18.446;2023-03-01T09:58:59;1.60;;;1.60;;
17390;SDS011;8813;54.444;18.446;2023-03-01T10:01:33;5.22;;;4.45;;
17390;SDS011;8813;54.444;18.446;2023-03-01T10:04:04;1.65;;;1.65;;
17390;SDS011;8813;54.444;18.446;2023-03-01T10:06:40;3.95;;;3.58;;
17390;SDS011;8813;54.444;18.446;2023-03-01T10:09:10;3.70;;;3.40;;
17390;SDS011;8813;54.444;18.446;2023-03-01T10:11:41;3.83;;;3.50;;
17390;SDS011;8813;54.444;18.446;2023-03-01T10:14:13;2.40;;;2.30;;
17390;SDS011;8813;54.444;18.446;2023-03-01T10:16:43;2.20;;;2.13;;
17390;SDS011;8813;54.444;18.446;2023-03-01T10:19:17;5.78;;;3.20;;
17390;SDS011;8813;54.444;18.446;2023-03-01T10:21:48;2.95;;;2.85;;
17390;SDS011;8813;54.444;18.446;2023-03-01T10:24:19;3.10;;;2.97;;
17390;SDS011;8813;54.444;18.446;2023-03-01T10:26:55;5.80;;;3.33;;
17390;SDS011;8813;54.444;18.446;2023-03-01T10:29:24;7.95;;;5.65;;
17390;SDS011;8813;54.444;18.446;2023-03-01T10:31:52;6.00;;;5.50;;
17390;SDS011;8813;54.444;18.446;2023-03-01T10:34:21;2.22;;;2.20;;
17390;SDS011;8813;54.444;18.446;2023-03-01T10:36:49;3.78;;;3.58;;
17390;SDS011;8813;54.444;18.446;2023-03-01T10:39:18;3.15;;;3.05;;
17390;SDS011;8813;54.444;18.446;2023-03-01T10:41:55;4.67;;;4.13;;
17390;SDS011;8813;54.444;18.446;2023-03-01T10:44:36;2.95;;;2.75;;
17390;SDS011;8813;54.444;18.446;2023-03-01T10:47:04;4.47;;;4.33;;
17390;SDS011;8813;54.444;18.446;2023-03-01T10:49:31;7.38;;;4.47;;
17390;SDS011;8813;54.444;18.446;2023-03-01T10:51:58;3.20;;;2.97;;
17390;SDS011;8813;54.444;18.446;2023-03-01T10:54:38;2.75;;;2.55;;
17390;SDS011;8813;54.444;18.446;2023-03-01T10:57:09;6.05;;;3.08;;
17390;SDS011;8813;54.444;18.446;2023-03-01T11:00:00;1.50;;;1.50;;
17390;SDS011;8813;54.444;18.446;2023-03-01T11:02:36;2.63;;;2.47;;
17390;SDS011;8813;54.444;18.446;2023-03-01T11:05:13;4.45;;;3.63;;
17390;SDS011;8813;54.444;18.446;2023-03-01T11:07:48;3.83;;;3.53;;
17390;SDS011;8813;54.444;18.446;2023-03-01T11:10:16;3.67;;;3.45;;
17390;SDS011;8813;54.444;18.446;2023-03-01T11:12:46;3.10;;;2.47;;
17390;SDS011;8813;54.444;18.446;2023-03-01T11:15:23;4.32;;;4.03;;
17390;SDS011;8813;54.444;18.446;2023-03-01T11:17:52;3.53;;;3.22;;
17390;SDS011;8813;54.444;18.446;2023-03-01T11:20:24;1.88;;;1.88;;
17390;SDS011;8813;54.444;18.446;2023-03-01T11:22:53;2.35;;;2.15;;
17390;SDS011;8813;54.444;18.446;2023-03-01T11:25:23;7.15;;;5.13;;
17390;SDS011;8813;54.444;18.446;2023-03-01T11:27:52;3.25;;;2.97;;
17390;SDS011;8813;54.444;18.446;2023-03-01T11:30:20;2.53;;;2.35;;
17390;SDS011;8813;54.444;18.446;2023-03-01T11:32:50;4.90;;;4.55;;
17390;SDS011;8813;54.444;18.446;2023-03-01T11:35:22;4.93;;;4.45;;
17390;SDS011;8813;54.444;18.446;2023-03-01T11:37:55;3.92;;;2.85;;
17390;SDS011;8813;54.444;18.446;2023-03-01T11:40:29;2.17;;;2.17;;
17390;SDS011;8813;54.444;18.446;2023-03-01T11:43:03;4.50;;;3.67;;
17390;SDS011;8813;54.444;18.446;2023-03-01T11:45:39;5.43;;;3.25;;
17390;SDS011;8813;54.444;18.446;2023-03-01T11:48:27;2.05;;;1.80;;
17390;SDS011;8813;54.444;18.446;2023-03-01T11:51:01;2.28;;;2.08;;
17390;SDS011;8813;54.444;18.446;2023-03-01T11:53:48;3.30;;;3.10;;
17390;SDS011;8813;54.444;18.446;2023-03-01T11:56:22;6.07;;;3.25;;
17390;SDS011;8813;54.444;18.446;2023-03-01T12:01:56;2.72;;;2.63;;
17390;SDS011;8813;54.444;18.446;2023-03-01T12:04:54;5.10;;;4.70;;
17390;SDS011;8813;54.444;18.446;2023-03-01T12:07:49;3.20;;;3.00;;
17390;SDS011;8813;54.444;18.446;2023-03-01T12:10:20;2.00;;;1.90;;
17390;SDS011;8813;54.444;18.446;2023-03-01T12:12:56;4.28;;;3.90;;
17390;SDS011;8813;54.444;18.446;2023-03-01T12:15:34;1.63;;;1.63;;
17390;SDS011;8813;54.444;18.446;2023-03-01T12:21:05;2.35;;;2.25;;
17390;SDS011;8813;54.444;18.446;2023-03-01T12:23:45;5.53;;;4.65;;
17390;SDS011;8813;54.444;18.446;2023-03-01T12:26:25;1.80;;;1.80;;
17390;SDS011;8813;54.444;18.446;2023-03-01T12:34:51;5.53;;;4.03;;
17390;SDS011;8813;54.444;18.446;2023-03-01T12:37:36;5.50;;;5.05;;
17390;SDS011;8813;54.444;18.446;2023-03-01T12:43:36;1.58;;;1.52;;
17390;SDS011;8813;54.444;18.446;2023-03-01T12:46:20;3.42;;;2.72;;
17390;SDS011;8813;54.444;18.446;2023-03-01T12:48:56;6.55;;;4.32;;
17390;SDS011;8813;54.444;18.446;2023-03-01T12:51:29;3.13;;;2.75;;
17390;SDS011;8813;54.444;18.446;2023-03-01T12:53:58;1.95;;;1.88;;
17390;SDS011;8813;54.444;18.446;2023-03-01T12:56:27;17.13;;;15.20;;
17390;SDS011;8813;54.444;18.446;2023-03-01T12:58:57;19.70;;;16.98;;
17390;SDS011;8813;54.444;18.446;2023-03-01T13:01:31;45.38;;;36.90;;
17390;SDS011;8813;54.444;18.446;2023-03-01T13:04:10;49.50;;;40.60;;
17390;SDS011;8813;54.444;18.446;2023-03-01T13:06:44;20.52;;;18.25;;
17390;SDS011;8813;54.444;18.446;2023-03-01T13:09:23;30.67;;;27.48;;
17390;SDS011;8813;54.444;18.446;2023-03-01T13:11:55;18.42;;;15.73;;
17390;SDS011;8813;54.444;18.446;2023-03-01T13:14:35;18.15;;;16.35;;
17390;SDS011;8813;54.444;18.446;2023-03-01T13:17:02;20.85;;;18.83;;
17390;SDS011;8813;54.444;18.446;2023-03-01T13:19:31;36.75;;;29.95;;
17390;SDS011;8813;54.444;18.446;2023-03-01T13:22:01;21.33;;;18.92;;
17390;SDS011;8813;54.444;18.446;2023-03-01T13:25:12;14.15;;;12.75;;
17390;SDS011;8813;54.444;18.446;2023-03-01T13:31:11;14.50;;;12.98;;
17390;SDS011;8813;54.444;18.446;2023-03-01T13:37:22;13.63;;;12.23;;
17390;SDS011;8813;54.444;18.446;2023-03-01T13:39:55;13.18;;;11.77;;
17390;SDS011;8813;54.444;18.446;2023-03-01T13:42:29;12.52;;;11.32;;
17390;SDS011;8813;54.444;18.446;2023-03-01T13:45:21;11.25;;;9.90;;
17390;SDS011;8813;54.444;18.446;2023-03-01T13:47:54;13.77;;;10.25;;
17390;SDS011;8813;54.444;18.446;2023-03-01T13:50:24;13.82;;;11.32;;
17390;SDS011;8813;54.444;18.446;2023-03-01T13:52:53;12.60;;;9.68;;
17390;SDS011;8813;54.444;18.446;2023-03-01T13:55:25;1.60;;;1.50;;
17390;SDS011;8813;54.444;18.446;2023-03-01T13:57:54;2.28;;;2.17;;
17390;SDS011;8813;54.444;18.446;2023-03-01T14:00:30;1.40;;;1.40;;
17390;SDS011;8813;54.444;18.446;2023-03-01T14:05:57;1.58;;;1.58;;
17390;SDS011;8813;54.444;18.446;2023-03-01T14:08:27;1.40;;;1.40;;
17390;SDS011;8813;54.444;18.446;2023-03-01T14:11:08;2.97;;;2.78;;
17390;SDS011;8813;54.444;18.446;2023-03-01T14:17:17;1.63;;;1.63;;
17390;SDS011;8813;54.444;18.446;2023-03-01T14:19:54;6.03;;;2.25;;
17390;SDS011;8813;54.444;18.446;2023-03-01T14:22:23;1.85;;;1.77;;
17390;SDS011;8813;54.444;18.446;2023-03-01T14:24:53;1.73;;;1.63;;
17390;SDS011;8813;54.444;18.446;2023-03-01T14:27:23;1.00;;;1.00;;
17390;SDS011;8813;54.444;18.446;2023-03-01T14:29:56;2.42;;;2.33;;
17390;SDS011;8813;54.444;18.446;2023-03-01T14:32:24;1.80;;;1.75;;
17390;SDS011;8813;54.444;18.446;2023-03-01T14:34:52;4.20;;;3.97;;
17390;SDS011;8813;54.444;18.446;2023-03-01T14:37:20;1.42;;;1.38;;
17390;SDS011;8813;54.444;18.446;2023-03-01T14:39:49;1.20;;;1.20;;
17390;SDS011;8813;54.444;18.446;2023-03-01T14:42:16;2.05;;;2.05;;
17390;SDS011;8813;54.444;18.446;2023-03-01T14:44:46;0.98;;;0.98;;
17390;SDS011;8813;54.444;18.446;2023-03-01T14:47:15;1.67;;;1.67;;
17390;SDS011;8813;54.444;18.446;2023-03-01T14:49:48;1.50;;;1.50;;
17390;SDS011;8813;54.444;18.446;2023-03-01T14:52:18;1.17;;;1.17;;
17390;SDS011;8813;54.444;18.446;2023-03-01T14:54:51;1.13;;;1.13;;
17390;SDS011;8813;54.444;18.446;2023-03-01T14:57:24;6.88;;;4.13;;
17390;SDS011;8813;54.444;18.446;2023-03-01T14:59:54;2.47;;;2.38;;
17390;SDS011;8813;54.444;18.446;2023-03-01T15:02:22;1.63;;;1.63;;
17390;SDS011;8813;54.444;18.446;2023-03-01T15:04:52;2.53;;;2.33;;
17390;SDS011;8813;54.444;18.446;2023-03-01T15:07:21;2.97;;;2.88;;
17390;SDS011;8813;54.444;18.446;2023-03-01T15:09:50;2.92;;;2.65;;
17390;SDS011;8813;54.444;18.446;2023-03-01T15:12:36;0.90;;;0.90;;
17390;SDS011;8813;54.444;18.446;2023-03-01T15:15:23;1.60;;;1.60;;
17390;SDS011;8813;54.444;18.446;2023-03-01T15:17:57;3.80;;;3.30;;
17390;SDS011;8813;54.444;18.446;2023-03-01T15:20:26;3.67;;;1.38;;
17390;SDS011;8813;54.444;18.446;2023-03-01T15:22:55;3.60;;;3.15;;
17390;SDS011;8813;54.444;18.446;2023-03-01T15:25:23;1.60;;;1.60;;
17390;SDS011;8813;54.444;18.446;2023-03-01T15:27:52;1.90;;;1.80;;
17390;SDS011;8813;54.444;18.446;2023-03-01T15:30:22;4.65;;;2.83;;